Time;durP1;ratioP1;P1;durP2;ratioP2;P2;SDS_P1;SDS_P2;PMS_P1;PMS_P2;Temp;Humidity;BMP_temperature;BMP_pressure;BME280_temperature;BME280_humidity;BME280_pressure;Samples;Min_cycle;Max_cycle;Signal;HPM_P1;HPM_P2
2021/12/12 00:01:43;;;;;;;35.13;13.55;;;;;;;2.72;100.00;102072.22;5070817;28;20028;-86
2021/12/12 00:04:14;;;;;;;30.73;12.90;;;;;;;2.73;100.00;102069.69;5070447;28;20468;-86
2021/12/12 00:06:45;;;;;;;37.47;13.30;;;;;;;2.78;100.00;102073.28;5071080;28;20032;-87
2021/12/12 00:09:25;;;;;;;33.88;13.20;;;;;;;2.79;100.00;102071.56;5071090;28;20100;-86
2021/12/12 00:11:52;;;;;;;26.77;12.02;;;;;;;2.84;100.00;102076.84;5071337;28;20039;-88
2021/12/12 00:14:23;;;;;;;29.88;11.88;;;;;;;2.90;100.00;102077.00;5071643;28;20028;-86
2021/12/12 00:16:50;;;;;;;26.58;12.43;;;;;;;2.86;100.00;102052.00;5071837;28;20107;-86
2021/12/12 00:19:15;;;;;;;27.67;11.20;;;;;;;2.92;100.00;102063.34;5072578;28;20085;-86
2021/12/12 00:21:45;;;;;;;27.50;11.50;;;;;;;2.94;100.00;102059.13;5070328;28;20025;-86
2021/12/12 00:24:13;;;;;;;28.27;11.45;;;;;;;2.91;100.00;102053.88;5071861;28;20021;-87
2021/12/12 00:26:41;;;;;;;27.88;11.13;;;;;;;2.98;100.00;102062.66;5071901;28;20103;-87
2021/12/12 00:29:08;;;;;;;24.33;11.55;;;;;;;2.99;100.00;102057.53;5064844;28;20110;-86
2021/12/12 00:31:36;;;;;;;29.27;11.35;;;;;;;3.02;100.00;102060.19;5057112;28;20033;-86
2021/12/12 00:34:04;;;;;;;24.58;11.20;;;;;;;2.99;100.00;102052.38;5071425;28;20021;-86
2021/12/12 00:36:32;;;;;;;32.40;10.90;;;;;;;3.02;100.00;102051.59;5071074;28;20094;-87
2021/12/12 00:39:03;;;;;;;25.35;10.77;;;;;;;3.04;100.00;102049.91;5071548;28;20078;-87
2021/12/12 00:41:42;;;;;;;29.08;11.23;;;;;;;3.02;100.00;102055.03;5071709;28;20476;-87
2021/12/12 00:44:09;;;;;;;30.98;11.15;;;;;;;3.01;100.00;102050.72;5070645;28;20082;-87
2021/12/12 00:46:35;;;;;;;28.52;11.55;;;;;;;3.00;100.00;102043.81;5070285;28;20571;-87
2021/12/12 00:49:01;;;;;;;23.02;10.35;;;;;;;2.98;100.00;102045.50;5071839;28;20028;-87
2021/12/12 00:51:30;;;;;;;28.55;10.43;;;;;;;2.92;100.00;102034.16;5070895;28;20430;-87
2021/12/12 00:53:57;;;;;;;33.03;11.13;;;;;;;2.99;100.00;102047.22;5071745;28;20031;-87
2021/12/12 00:56:23;;;;;;;24.70;11.05;;;;;;;2.99;100.00;102043.78;5071126;28;20055;-87
2021/12/12 00:58:48;;;;;;;28.15;10.95;;;;;;;2.97;100.00;102037.69;5069669;28;20114;-87
2021/12/12 01:01:21;;;;;;;34.40;11.85;;;;;;;2.99;100.00;102033.47;5072122;28;20025;-87
2021/12/12 01:03:56;;;;;;;30.80;11.98;;;;;;;2.97;100.00;102036.00;5070950;28;20021;-87
2021/12/12 01:06:23;;;;;;;31.50;12.13;;;;;;;2.95;100.00;102029.06;5071824;28;20035;-87
2021/12/12 01:08:51;;;;;;;32.30;12.20;;;;;;;2.94;100.00;102017.00;5071482;28;20037;-87
2021/12/12 01:11:23;;;;;;;33.15;11.77;;;;;;;2.92;100.00;102022.13;5070161;28;20587;-87
2021/12/12 01:13:49;;;;;;;33.75;11.27;;;;;;;2.90;100.00;102021.22;5071498;28;20028;-87
2021/12/12 01:16:21;;;;;;;37.22;12.68;;;;;;;2.92;100.00;102024.72;5070839;28;20063;-87
2021/12/12 01:18:53;;;;;;;36.35;12.27;;;;;;;2.96;100.00;102041.13;5073104;28;20117;-86
2021/12/12 01:21:26;;;;;;;33.33;11.90;;;;;;;2.94;100.00;102028.22;5075810;28;20477;-87
2021/12/12 01:23:57;;;;;;;34.05;13.15;;;;;;;2.88;100.00;102007.44;5075143;28;20039;-86
2021/12/12 01:26:24;;;;;;;29.30;12.27;;;;;;;2.95;100.00;102022.22;5071263;28;20032;-87
2021/12/12 01:28:53;;;;;;;38.22;12.30;;;;;;;2.97;100.00;102017.97;5074624;28;20043;-87
2021/12/12 01:31:24;;;;;;;39.40;13.00;;;;;;;2.99;100.00;102031.75;5075511;28;20024;-87
2021/12/12 01:33:59;;;;;;;28.50;12.02;;;;;;;3.00;100.00;102030.06;5074235;28;20494;-88
2021/12/12 01:36:41;;;;;;;35.88;12.48;;;;;;;3.00;100.00;102033.50;5075233;28;20032;-87
2021/12/12 01:39:07;;;;;;;26.90;11.38;;;;;;;3.02;100.00;102031.84;5073798;28;20032;-87
2021/12/12 01:41:53;;;;;;;30.80;11.55;;;;;;;3.04;100.00;102024.16;5074537;28;20048;-88
2021/12/12 01:44:46;;;;;;;29.70;12.15;;;;;;;3.04;100.00;102022.47;5074946;28;20074;-87
2021/12/12 01:47:37;;;;;;;34.33;12.40;;;;;;;3.07;100.00;102025.94;5040339;28;20515;-87
2021/12/12 01:50:11;;;;;;;37.50;12.30;;;;;;;3.02;100.00;102010.38;5061874;28;20051;-87
2021/12/12 01:52:37;;;;;;;36.60;12.40;;;;;;;3.07;100.00;102019.06;5075095;28;20482;-87
2021/12/12 01:55:22;;;;;;;36.75;12.85;;;;;;;3.07;100.00;102020.78;5066216;28;20103;-88
2021/12/12 01:57:49;;;;;;;31.88;12.18;;;;;;;3.08;100.00;102019.97;5064072;28;20415;-87
2021/12/12 02:00:27;;;;;;;35.42;12.13;;;;;;;3.13;100.00;102028.69;5073554;28;20033;-88
2021/12/12 02:02:53;;;;;;;37.20;12.85;;;;;;;3.13;100.00;102008.06;5074510;28;20389;-88
2021/12/12 02:05:20;;;;;;;37.50;12.70;;;;;;;3.13;100.00;102003.78;5074994;28;20017;-89
2021/12/12 02:07:57;;;;;;;31.73;13.25;;;;;;;3.13;100.00;102014.09;5073222;28;20483;-88
2021/12/12 02:10:28;;;;;;;37.67;13.40;;;;;;;3.19;100.00;102010.81;5074020;28;20021;-89
2021/12/12 02:12:54;;;;;;;27.00;11.38;;;;;;;3.20;100.00;102015.97;5073529;28;20427;-90
2021/12/12 02:15:20;;;;;;;32.65;12.77;;;;;;;3.21;100.00;102006.56;5073969;28;20159;-89
2021/12/12 02:17:48;;;;;;;38.60;13.52;;;;;;;3.23;100.00;102005.75;5074322;28;20100;-89
2021/12/12 02:20:24;;;;;;;35.17;13.63;;;;;;;3.21;100.00;101999.72;5074818;28;20111;-89
2021/12/12 02:23:07;;;;;;;33.38;12.35;;;;;;;3.27;100.00;102014.47;5073537;28;20070;-89
2021/12/12 02:36:44;;;;;;;29.45;11.50;;;;;;;3.38;100.00;101996.69;5073236;28;20518;-89
2021/12/12 02:39:15;;;;;;;35.80;12.63;;;;;;;3.37;100.00;101998.38;5074270;28;20033;-88
2021/12/12 02:41:43;;;;;;;31.35;11.43;;;;;;;3.39;100.00;102003.56;5073034;28;20028;-88
2021/12/12 02:44:10;;;;;;;40.03;12.80;;;;;;;3.42;100.00;102006.22;5073360;28;20033;-89
2021/12/12 02:46:37;;;;;;;37.03;12.35;;;;;;;3.42;100.00;101991.63;5073569;28;20037;-88
2021/12/12 02:49:09;;;;;;;38.50;12.57;;;;;;;3.43;100.00;101977.00;5071672;28;20444;-89
2021/12/12 02:51:40;;;;;;;42.00;12.07;;;;;;;3.48;100.00;101978.88;5073881;28;20028;-88
2021/12/12 02:54:07;;;;;;;34.22;11.82;;;;;;;3.47;100.00;101969.41;5073988;28;20028;-88
2021/12/12 02:56:43;;;;;;;39.45;12.18;;;;;;;3.50;100.00;101973.78;5071919;28;20044;-88
2021/12/12 02:59:14;;;;;;;29.77;11.90;;;;;;;3.54;100.00;101979.88;5074058;28;20067;-88
2021/12/12 03:01:46;;;;;;;39.15;12.70;;;;;;;3.56;100.00;101978.19;5072272;28;20071;-89
2021/12/12 03:04:12;;;;;;;39.83;12.15;;;;;;;3.57;100.00;101974.78;5072125;28;20024;-88
2021/12/12 03:06:41;;;;;;;36.47;12.50;;;;;;;3.59;100.00;101966.22;5073426;28;20388;-89
2021/12/12 03:09:12;;;;;;;41.65;13.57;;;;;;;3.59;100.00;101973.09;5073384;28;20349;-89
2021/12/12 03:11:38;;;;;;;35.72;12.50;;;;;;;3.61;100.00;101972.31;5053140;28;20461;-90
2021/12/12 03:14:03;;;;;;;38.15;12.45;;;;;;;3.62;100.00;101979.19;5053760;28;20046;-89
2021/12/12 03:16:30;;;;;;;33.92;13.27;;;;;;;3.66;100.00;101969.81;5065042;28;20020;-90
2021/12/12 03:18:56;;;;;;;39.13;13.10;;;;;;;3.65;100.00;101957.78;5071600;28;20040;-88
2021/12/12 03:21:32;;;;;;;40.53;13.55;;;;;;;3.67;100.00;101967.28;5073298;28;20046;-89
2021/12/12 03:24:02;;;;;;;39.05;13.35;;;;;;;3.69;100.00;101969.88;5073280;28;20033;-89
2021/12/12 03:26:28;;;;;;;36.97;12.77;;;;;;;3.68;100.00;101965.56;5071857;28;20056;-89
2021/12/12 03:28:56;;;;;;;42.80;12.65;;;;;;;3.66;100.00;101954.34;5072775;28;20032;-90
2021/12/12 03:31:34;;;;;;;41.13;13.02;;;;;;;3.73;100.00;101959.69;5072105;28;20028;-89
2021/12/12 03:34:03;;;;;;;47.65;14.00;;;;;;;3.72;100.00;101954.47;5053844;28;20033;-89
2021/12/12 03:36:28;;;;;;;40.47;14.43;;;;;;;3.73;100.00;101949.38;5066272;28;20113;-88
2021/12/12 03:38:58;;;;;;;41.63;13.63;;;;;;;3.72;100.00;101945.03;5071504;28;20066;-89
2021/12/12 03:41:29;;;;;;;38.95;13.63;;;;;;;3.78;100.00;101938.28;5073298;28;20068;-90
2021/12/12 03:43:58;;;;;;;39.45;13.88;;;;;;;3.78;100.00;101938.28;5072854;28;20036;-89
2021/12/12 03:46:24;;;;;;;38.45;13.30;;;;;;;3.74;100.00;101940.78;5071105;28;20101;-88
2021/12/12 03:48:50;;;;;;;41.83;14.38;;;;;;;3.85;100.00;101935.00;5072485;28;20032;-89
2021/12/12 03:51:18;;;;;;;40.97;14.18;;;;;;;3.89;100.00;101932.53;5071878;28;20028;-89
2021/12/12 03:53:45;;;;;;;45.50;15.10;;;;;;;3.88;100.00;101942.81;5062098;28;20573;-88
2021/12/12 03:56:13;;;;;;;41.80;15.65;;;;;;;3.86;100.00;101935.03;5059474;28;20397;-90
2021/12/12 03:58:40;;;;;;;38.30;15.00;;;;;;;3.82;100.00;101916.88;5072205;28;20029;-88
2021/12/12 04:01:10;;;;;;;46.65;16.50;;;;;;;3.91;100.00;101935.13;5071738;28;20078;-88
2021/12/12 04:03:36;;;;;;;40.67;15.45;;;;;;;3.93;100.00;101942.06;5072127;28;20037;-89
2021/12/12 04:06:05;;;;;;;47.50;15.48;;;;;;;3.94;100.00;101945.53;5071381;28;20037;-89
2021/12/12 04:08:35;;;;;;;33.33;15.52;;;;;;;3.93;100.00;101934.34;5071608;28;20024;-90
2021/12/12 04:11:03;;;;;;;47.53;15.38;;;;;;;3.97;100.00;101950.75;5071322;28;20461;-88
2021/12/12 04:13:29;;;;;;;37.00;16.30;;;;;;;3.93;100.00;101942.06;5071638;28;20038;-90
2021/12/12 04:15:55;;;;;;;35.13;16.50;;;;;;;3.98;100.00;101944.75;5071620;28;20028;-89
2021/12/12 04:18:23;;;;;;;37.53;16.52;;;;;;;3.99;100.00;101943.91;5072439;28;20032;-89
2021/12/12 04:20:48;;;;;;;46.10;17.55;;;;;;;3.97;100.00;101946.44;5071435;28;20444;-89
2021/12/12 04:23:19;;;;;;;42.45;17.25;;;;;;;4.03;100.00;101939.69;5072139;28;20163;-88
2021/12/12 04:25:45;;;;;;;51.45;17.80;;;;;;;3.98;100.00;101940.44;5068813;28;20553;-87
2021/12/12 04:28:11;;;;;;;37.88;16.85;;;;;;;4.03;100.00;101950.88;5071132;28;20050;-88
2021/12/12 04:30:37;;;;;;;35.25;17.42;;;;;;;4.06;100.00;101950.94;5071922;28;20472;-89
2021/12/12 04:33:02;;;;;;;38.20;15.90;;;;;;;4.06;100.00;101948.38;5072246;28;20024;-90
2021/12/12 04:35:28;;;;;;;36.30;16.02;;;;;;;4.05;100.00;101948.31;5070865;28;20116;-89
2021/12/12 04:37:55;;;;;;;31.90;16.27;;;;;;;4.10;100.00;101944.13;5071974;28;20035;-89
2021/12/12 04:40:27;;;;;;;43.55;17.60;;;;;;;4.13;100.00;101949.38;5071618;28;20053;-89
2021/12/12 04:42:55;;;;;;;39.03;16.50;;;;;;;4.10;100.00;101947.59;5071341;28;20056;-89
2021/12/12 04:45:41;;;;;;;40.58;16.10;;;;;;;4.10;100.00;101957.03;5071025;28;20054;-89
2021/12/12 04:51:12;;;;;;;31.17;14.23;;;;;;;4.09;100.00;101940.69;5072302;28;20043;-89
2021/12/12 04:54:04;;;;;;;31.92;15.07;;;;;;;4.11;100.00;101939.00;5070295;28;20025;-88
2021/12/12 04:56:39;;;;;;;33.67;15.93;;;;;;;4.12;100.00;101940.75;5064249;28;20049;-88
2021/12/12 04:59:11;;;;;;;38.58;15.00;;;;;;;4.18;100.00;101945.16;5051806;28;20044;-88
2021/12/12 05:01:41;;;;;;;30.17;14.55;;;;;;;4.15;100.00;101945.97;5051911;28;20104;-89
2021/12/12 05:04:19;;;;;;;31.83;15.73;;;;;;;4.17;100.00;101948.56;5056361;28;20032;-88
2021/12/12 05:06:53;;;;;;;33.88;14.20;;;;;;;4.21;100.00;101952.97;5071138;28;20056;-89
2021/12/12 05:09:25;;;;;;;;;;;;;;;4.22;100.00;101959.88;5072444;28;20031;-89
2021/12/12 05:11:57;;;;;;;35.50;15.15;;;;;;;4.22;100.00;101958.16;5066772;28;20293;-89
2021/12/12 05:14:26;;;;;;;33.38;14.80;;;;;;;4.23;100.00;101959.91;5066586;28;20027;-89
2021/12/12 05:17:02;;;;;;;31.42;14.90;;;;;;;4.24;100.00;101965.94;5065741;28;20035;-90
2021/12/12 05:19:30;;;;;;;34.75;14.57;;;;;;;4.27;100.00;101966.00;5071416;28;20064;-89
2021/12/12 05:22:04;;;;;;;31.95;16.48;;;;;;;4.31;100.00;101967.78;5071722;28;20031;-89
2021/12/12 05:24:31;;;;;;;30.35;14.32;;;;;;;4.27;100.00;101966.00;5070277;28;20071;-89
2021/12/12 05:27:02;;;;;;;33.10;14.95;;;;;;;4.32;100.00;101973.84;5070945;28;20491;-88
2021/12/12 05:29:32;;;;;;;33.38;16.10;;;;;;;4.34;100.00;101975.59;5070791;28;20098;-89
2021/12/12 05:32:00;;;;;;;28.38;14.40;;;;;;;4.35;100.00;101974.78;5068474;28;20068;-89
2021/12/12 05:34:32;;;;;;;30.33;15.63;;;;;;;4.31;100.00;101965.19;5071392;28;20082;-88
2021/12/12 05:36:59;;;;;;;30.05;14.63;;;;;;;4.35;100.00;101969.63;5070263;28;20036;-89
2021/12/12 05:39:25;;;;;;;28.05;13.45;;;;;;;4.37;100.00;101967.91;5070711;28;20380;-89
2021/12/12 05:41:53;;;;;;;31.73;14.80;;;;;;;4.42;100.00;101971.47;5070548;28;20116;-89
2021/12/12 05:44:19;;;;;;;25.70;13.23;;;;;;;4.37;100.00;101965.34;5071434;28;20033;-88
2021/12/12 05:46:44;;;;;;;29.80;13.75;;;;;;;4.42;100.00;101970.59;5069210;28;20500;-88
2021/12/12 05:49:11;;;;;;;25.48;13.75;;;;;;;4.42;100.00;101966.31;5071431;28;20111;-90
2021/12/12 05:51:36;;;;;;;27.20;13.73;;;;;;;4.45;100.00;101968.94;5070450;28;20051;-88
2021/12/12 05:54:03;;;;;;;27.80;13.65;;;;;;;4.49;100.00;101977.63;5070711;28;20465;-88
2021/12/12 05:56:32;;;;;;;29.13;14.30;;;;;;;4.50;100.00;101973.31;5070823;28;20056;-88
2021/12/12 05:58:58;;;;;;;28.15;13.93;;;;;;;4.52;100.00;101988.03;5071185;28;20074;-89
2021/12/12 06:01:26;;;;;;;35.20;15.20;;;;;;;4.52;100.00;101974.25;5070054;28;20039;-89
2021/12/12 06:03:53;;;;;;;28.60;14.23;;;;;;;4.57;100.00;101990.69;5070469;28;20476;-89
2021/12/12 06:06:23;;;;;;;27.33;14.25;;;;;;;4.52;100.00;101979.41;5073351;28;20170;-89
2021/12/12 06:08:49;;;;;;;25.73;14.13;;;;;;;4.62;100.00;101994.25;5074263;28;20032;-88
2021/12/12 06:11:19;;;;;;;32.55;14.73;;;;;;;4.64;100.00;102002.88;5073801;28;20036;-89
2021/12/12 06:13:45;;;;;;;29.08;13.80;;;;;;;4.62;100.00;101989.94;5073829;28;20031;-89
2021/12/12 06:16:18;;;;;;;29.10;14.27;;;;;;;4.62;100.00;101992.53;5073989;28;20409;-88
2021/12/12 06:18:46;;;;;;;30.97;14.60;;;;;;;4.63;100.00;101994.25;5073882;28;20033;-88
2021/12/12 06:21:12;;;;;;;33.03;14.95;;;;;;;4.67;100.00;102000.34;5074023;28;20107;-89
2021/12/12 06:23:37;;;;;;;29.05;14.35;;;;;;;4.70;100.00;102009.03;5074161;28;20103;-89
2021/12/12 06:26:03;;;;;;;35.05;15.98;;;;;;;4.69;100.00;102002.13;5073041;28;20036;-88
2021/12/12 06:28:36;;;;;;;35.28;15.73;;;;;;;4.75;100.00;101998.78;5073540;28;20027;-89
2021/12/12 06:31:03;;;;;;;33.47;16.10;;;;;;;4.74;100.00;101993.59;5074226;28;20040;-89
2021/12/12 06:33:29;;;;;;;34.10;15.82;;;;;;;4.77;100.00;101997.09;5074214;28;20032;-89
2021/12/12 06:35:55;;;;;;;32.45;17.77;;;;;;;4.80;100.00;102004.91;5072502;28;20024;-89
2021/12/12 06:38:21;;;;;;;35.58;16.70;;;;;;;4.78;100.00;101991.09;5074279;28;20380;-89
2021/12/12 06:40:47;;;;;;;33.60;15.77;;;;;;;4.85;100.00;101994.66;5069975;28;20035;-89
2021/12/12 06:43:15;;;;;;;33.53;16.65;;;;;;;4.85;100.00;101992.09;5053931;28;20033;-89
2021/12/12 06:45:40;;;;;;;35.58;16.42;;;;;;;4.88;100.00;102000.75;5066338;28;20016;-89
2021/12/12 06:48:08;;;;;;;32.97;15.95;;;;;;;4.88;100.00;101998.19;5074145;28;20361;-89
2021/12/12 06:50:36;;;;;;;34.30;17.23;;;;;;;4.91;100.00;102007.72;5073034;28;20024;-88
2021/12/12 06:53:01;;;;;;;40.42;16.77;;;;;;;4.87;100.00;101996.44;5074008;28;20081;-89
2021/12/12 06:55:28;;;;;;;39.80;18.65;;;;;;;4.96;100.00;102007.78;5071937;28;20841;-90
2021/12/12 06:57:54;;;;;;;37.55;18.42;;;;;;;4.97;100.00;102007.81;5072487;28;20484;-88
2021/12/12 07:00:22;;;;;;;41.13;19.67;;;;;;;4.97;100.00;102007.81;5072945;28;20037;-89
2021/12/12 07:02:49;;;;;;;43.75;18.45;;;;;;;5.02;100.00;102015.66;5072886;28;20025;-88
2021/12/12 07:05:19;;;;;;;40.38;18.00;;;;;;;4.93;100.00;102004.28;5073482;28;20028;-89
2021/12/12 07:07:45;;;;;;;41.90;18.27;;;;;;;5.05;100.00;102015.72;5073198;28;20032;-89
2021/12/12 07:10:13;;;;;;;36.22;17.60;;;;;;;5.08;100.00;102018.34;5071963;28;21347;-89
2021/12/12 07:12:40;;;;;;;43.10;18.70;;;;;;;5.06;100.00;102017.44;5072543;28;20044;-88
2021/12/12 07:15:09;;;;;;;41.03;18.92;;;;;;;5.09;100.00;102017.50;5073123;28;20020;-89
2021/12/12 07:17:35;;;;;;;38.05;18.55;;;;;;;5.06;100.00;102004.50;5072333;28;20020;-88
2021/12/12 07:20:02;;;;;;;44.05;19.75;;;;;;;5.14;100.00;102019.31;5073331;28;20032;-87
2021/12/12 07:22:28;;;;;;;43.60;18.90;;;;;;;5.13;100.00;102015.00;5072884;28;20034;-88
2021/12/12 07:24:54;;;;;;;44.05;19.50;;;;;;;5.12;100.00;102009.78;5071854;28;20025;-88
2021/12/12 07:27:19;;;;;;;41.42;19.30;;;;;;;5.17;100.00;102015.94;5073268;28;20089;-88
2021/12/12 07:29:44;;;;;;;42.85;19.20;;;;;;;5.18;100.00;102014.22;5072859;28;20526;-88
2021/12/12 07:32:10;;;;;;;42.28;18.63;;;;;;;5.21;100.00;102019.44;5072441;28;20035;-87
2021/12/12 07:34:37;;;;;;;42.08;19.33;;;;;;;5.23;100.00;102025.47;5072276;28;20032;-88
2021/12/12 07:37:06;;;;;;;43.05;19.10;;;;;;;5.23;100.00;102016.03;5070706;28;20543;-87
2021/12/12 07:39:32;;;;;;;46.67;19.73;;;;;;;5.22;100.00;102014.28;5071860;28;20032;-87
2021/12/12 07:42:01;;;;;;;44.17;18.67;;;;;;;5.22;100.00;102003.94;5072682;28;20031;-88
2021/12/12 07:44:29;;;;;;;49.83;20.50;;;;;;;5.25;100.00;102014.34;5071988;28;20024;-88
2021/12/12 07:46:58;;;;;;;41.33;17.98;;;;;;;5.25;100.00;102016.91;5072340;28;20109;-87
2021/12/12 07:49:28;;;;;;;47.45;19.17;;;;;;;5.32;100.00;102025.66;5072767;28;20086;-88
2021/12/12 07:51:54;;;;;;;44.95;20.05;;;;;;;5.33;100.00;102029.97;5071933;28;20040;-88
2021/12/12 07:54:20;;;;;;;41.22;19.30;;;;;;;5.34;100.00;102023.97;5072453;28;20036;-88
2021/12/12 07:56:46;;;;;;;48.72;21.52;;;;;;;5.39;100.00;102025.81;5071675;28;20040;-89
2021/12/12 07:59:14;;;;;;;52.22;20.92;;;;;;;5.39;100.00;102027.50;5071241;28;20032;-87
2021/12/12 08:01:42;;;;;;;49.15;20.58;;;;;;;5.35;100.00;102021.41;5072108;28;20032;-87
2021/12/12 08:04:09;;;;;;;48.22;20.40;;;;;;;5.39;100.00;102020.63;5071697;28;20061;-87
2021/12/12 08:06:35;;;;;;;45.60;21.40;;;;;;;5.43;100.00;102033.56;5071371;28;20067;-86
2021/12/12 08:09:02;;;;;;;56.13;24.55;;;;;;;5.53;100.00;102049.31;5070987;28;20056;-87
2021/12/12 08:11:31;;;;;;;44.88;21.08;;;;;;;5.49;100.00;102033.69;5072102;28;20029;-87
2021/12/12 08:13:57;;;;;;;54.97;21.10;;;;;;;5.51;100.00;102037.19;5071100;28;20535;-88
2021/12/12 08:16:23;;;;;;;53.92;21.77;;;;;;;5.52;100.00;102021.66;5071636;28;20040;-88
2021/12/12 08:18:49;;;;;;;53.25;21.58;;;;;;;5.57;100.00;102032.13;5070896;28;20043;-87
2021/12/12 08:21:16;;;;;;;51.35;21.60;;;;;;;5.67;100.00;102043.47;5071262;28;20034;-87
2021/12/12 08:23:43;;;;;;;54.08;22.80;;;;;;;5.63;100.00;102046.00;5070859;28;20108;-88
2021/12/12 08:26:10;;;;;;;52.38;22.10;;;;;;;5.71;100.00;102063.38;5071562;28;20465;-89
2021/12/12 08:28:36;;;;;;;57.60;22.25;;;;;;;5.73;100.00;102059.09;5070881;28;20066;-88
2021/12/12 08:31:02;;;;;;;51.70;21.88;;;;;;;5.68;100.00;102043.50;5070416;28;20028;-87
2021/12/12 08:33:29;;;;;;;50.17;21.52;;;;;;;5.72;100.00;102073.75;5068541;28;20016;-89
2021/12/12 08:35:56;;;;;;;52.28;21.75;;;;;;;5.67;100.00;102059.00;5070119;28;20412;-88
2021/12/12 08:38:21;;;;;;;55.22;21.25;;;;;;;5.73;100.00;102072.03;5062665;28;20025;-88
2021/12/12 08:40:50;;;;;;;54.25;21.35;;;;;;;5.72;100.00;102072.88;5058285;28;20487;-87
2021/12/12 08:43:19;;;;;;;52.33;20.27;;;;;;;5.79;100.00;102066.97;5065906;28;20081;-88
2021/12/12 08:45:58;;;;;;;53.03;21.15;;;;;;;5.81;100.00;102070.44;5071485;28;20464;-89
2021/12/12 08:48:26;;;;;;;49.03;21.08;;;;;;;5.78;100.00;102068.66;5066144;28;20138;-89
2021/12/12 08:50:57;;;;;;;53.53;21.52;;;;;;;5.84;100.00;102073.94;5068538;28;20024;-88
2021/12/12 08:53:24;;;;;;;58.97;20.85;;;;;;;5.88;100.00;102082.63;5071601;28;20456;-88
2021/12/12 08:55:52;;;;;;;53.85;22.75;;;;;;;5.81;100.00;102058.34;5069918;28;20112;-87
2021/12/12 08:58:25;;;;;;;49.15;19.77;;;;;;;5.91;100.00;102084.38;5071806;28;20024;-87
2021/12/12 09:00:53;;;;;;;57.75;21.73;;;;;;;5.95;100.00;102086.19;5070459;28;20040;-88
2021/12/12 09:03:37;;;;;;;60.15;23.45;;;;;;;5.95;100.00;102081.03;5070807;28;20047;-88
2021/12/12 09:06:04;;;;;;;59.80;22.85;;;;;;;6.00;100.00;102097.50;5071128;28;20017;-87
2021/12/12 09:08:39;;;;;;;61.70;22.83;;;;;;;6.03;100.00;102100.16;5066501;28;20056;-88
2021/12/12 09:11:21;;;;;;;56.78;21.70;;;;;;;6.05;100.00;102094.16;5067042;28;20039;-88
2021/12/12 09:13:58;;;;;;;66.45;21.92;;;;;;;6.03;100.00;102093.25;5070045;28;20404;-89
2021/12/12 09:16:29;;;;;;;57.00;20.58;;;;;;;6.09;100.00;102095.94;5070612;28;20037;-88
2021/12/12 09:19:06;;;;;;;45.78;18.58;;;;;;;6.01;100.00;102076.81;5069701;28;20033;-88
2021/12/12 09:21:49;;;;;;;56.17;21.70;;;;;;;6.11;100.00;102098.53;5060425;28;20115;-89
2021/12/12 09:24:30;;;;;;;63.45;19.85;;;;;;;6.16;100.00;102102.06;5070136;28;20033;-88
2021/12/12 09:27:00;;;;;;;51.53;20.20;;;;;;;6.15;100.00;102109.81;5070703;28;20056;-88
2021/12/12 09:29:35;;;;;;;56.00;20.55;;;;;;;6.14;100.00;102102.88;5060939;28;20060;-88
2021/12/12 09:32:03;;;;;;;55.70;20.52;;;;;;;6.21;100.00;102109.91;5062704;28;20112;-88
2021/12/12 09:34:43;;;;;;;49.53;21.27;;;;;;;6.20;100.00;102116.81;5059324;28;20464;-88
2021/12/12 09:37:30;;;;;;;57.20;20.15;;;;;;;6.17;100.00;102103.81;5067706;28;20064;-86
2021/12/12 09:40:15;;;;;;;48.33;20.20;;;;;;;6.26;100.00;102124.66;5063468;28;20037;-85
2021/12/12 09:43:20;;;;;;;53.88;19.75;;;;;;;6.28;100.00;102114.34;5054445;28;20025;-85
2021/12/12 09:46:00;;;;;;;55.05;19.25;;;;;;;6.32;100.00;102127.34;5053967;28;20025;-85
2021/12/12 09:52:00;;;;;;;57.65;21.98;;;;;;;6.39;100.00;102130.91;5053890;28;20450;-85
2021/12/12 09:54:40;;;;;;;55.45;20.13;;;;;;;6.42;100.00;102133.53;5073310;28;20056;-85
2021/12/12 09:57:18;;;;;;;55.30;20.10;;;;;;;6.42;100.00;102136.13;5074776;28;20052;-85
2021/12/12 10:00:08;;;;;;;47.42;20.42;;;;;;;6.49;100.00;102130.16;5073566;28;20460;-85
2021/12/12 10:03:05;;;;;;;51.75;20.08;;;;;;;6.51;100.00;102133.66;5074851;28;20036;-85
2021/12/12 10:05:41;;;;;;;52.08;19.63;;;;;;;6.53;100.00;102133.66;5073956;28;20159;-85
2021/12/12 10:08:14;;;;;;;51.53;19.13;;;;;;;6.51;100.00;102125.03;5071103;28;20031;-85
2021/12/12 10:11:09;;;;;;;54.42;20.85;;;;;;;6.49;100.00;102121.53;5073351;28;20032;-85
2021/12/12 10:13:43;;;;;;;51.85;20.65;;;;;;;6.55;100.00;102132.84;5073795;28;20032;-85
2021/12/12 10:16:17;;;;;;;48.35;20.55;;;;;;;6.60;100.00;102130.31;5074788;28;20025;-84
2021/12/12 10:18:55;;;;;;;;;;;;;;;6.65;100.00;102133.84;5074537;28;20025;-85
2021/12/12 10:21:47;;;;;;;56.85;19.98;;;;;;;6.69;100.00;102135.63;5074134;28;20010;-85
2021/12/12 10:24:27;;;;;;;55.85;21.35;;;;;;;6.66;100.00;102133.00;5072692;28;20393;-85
2021/12/12 10:27:01;;;;;;;56.25;19.65;;;;;;;6.71;100.00;102133.06;5072178;28;20111;-84
2021/12/12 10:29:37;;;;;;;57.72;21.52;;;;;;;6.76;100.00;102147.81;5074558;28;20105;-85
2021/12/12 10:32:12;;;;;;;48.22;20.25;;;;;;;6.74;100.00;102144.34;5073686;28;20032;-85
2021/12/12 10:34:47;;;;;;;55.38;20.55;;;;;;;6.73;100.00;102139.97;5053050;28;20476;-85
2021/12/12 10:37:25;;;;;;;48.40;20.27;;;;;;;6.74;100.00;102128.78;5054524;28;20024;-85
2021/12/12 10:40:00;;;;;;;49.30;19.50;;;;;;;6.78;100.00;102134.88;5053736;28;20031;-85
2021/12/12 10:42:36;;;;;;;51.95;20.08;;;;;;;6.79;100.00;102140.06;5053904;28;20025;-86
2021/12/12 10:45:07;;;;;;;49.03;20.65;;;;;;;6.74;100.00;102133.13;5053762;28;20023;-85
2021/12/12 10:47:38;;;;;;;49.05;21.45;;;;;;;6.82;100.00;102140.97;5058648;28;20464;-86
2021/12/12 10:50:33;;;;;;;54.38;21.33;;;;;;;6.84;100.00;102131.50;5073099;28;20021;-84
2021/12/12 10:53:17;;;;;;;50.72;20.73;;;;;;;6.84;100.00;102136.69;5073888;28;20035;-85
2021/12/12 10:55:56;;;;;;;44.45;20.33;;;;;;;6.84;100.00;102142.75;5072923;28;20028;-85
2021/12/12 10:58:33;;;;;;;52.05;21.60;;;;;;;6.86;100.00;102145.34;5074065;28;20028;-86
2021/12/12 11:01:08;;;;;;;53.65;21.40;;;;;;;6.91;100.00;102138.50;5073931;28;20067;-85
2021/12/12 11:03:38;;;;;;;56.53;20.45;;;;;;;6.94;100.00;102143.72;5054778;28;20048;-85
2021/12/12 11:06:13;;;;;;;47.85;20.77;;;;;;;6.90;100.00;102134.16;5072018;28;20059;-86
2021/12/12 11:09:00;;;;;;;42.67;20.27;;;;;;;6.94;100.00;102141.13;5072622;28;20052;-85
2021/12/12 11:11:33;;;;;;;50.35;20.85;;;;;;;6.95;100.00;102135.09;5073794;28;20055;-85
2021/12/12 11:14:14;;;;;;;49.20;20.03;;;;;;;6.99;100.00;102136.84;5073481;28;20032;-85
2021/12/12 11:16:47;;;;;;;48.03;20.65;;;;;;;7.02;100.00;102140.34;5072459;28;20020;-85
2021/12/12 11:19:20;;;;;;;49.20;20.60;;;;;;;7.01;100.00;102132.56;5072738;28;20032;-85
2021/12/12 11:21:51;;;;;;;42.90;19.98;;;;;;;7.11;100.00;102134.41;5073049;28;20111;-85
2021/12/12 11:24:26;;;;;;;43.08;18.67;;;;;;;7.13;100.00;102130.13;5072528;28;20551;-85
2021/12/12 11:27:07;;;;;;;48.42;20.50;;;;;;;7.19;100.00;102135.38;5072616;28;20053;-85
2021/12/12 11:29:41;;;;;;;43.90;18.65;;;;;;;7.23;100.00;102133.69;5073061;28;20031;-85
2021/12/12 11:32:09;;;;;;;;;;;;;;;7.31;100.00;102124.25;5073922;28;20028;-86
2021/12/12 11:34:35;;;;;;;37.00;17.38;;;;;;;7.33;100.00;102124.28;5070170;28;19923;-86
2021/12/12 11:37:35;;;;;;;34.53;16.58;;;;;;;7.37;100.00;102124.31;5072265;28;20024;-85
2021/12/12 11:40:19;;;;;;;30.88;16.33;;;;;;;7.33;100.00;102119.97;5072792;28;20031;-85
2021/12/12 11:43:03;;;;;;;36.67;17.23;;;;;;;7.35;100.00;102138.13;5072550;28;20032;-86
2021/12/12 11:45:39;;;;;;;35.55;17.30;;;;;;;7.36;100.00;102137.28;5071793;28;20052;-86